createdAt,value
2019-02-07T00:02:19.192Z,40.90
2019-02-07T00:04:49.235Z,40.17
2019-02-07T00:07:19.095Z,38.20
2019-02-07T00:09:49.480Z,37.90
2019-02-07T00:12:19.443Z,40.83
2019-02-07T00:14:49.751Z,39.20
2019-02-07T00:17:19.670Z,44.17
2019-02-07T00:19:49.848Z,39.23
2019-02-07T00:22:20.036Z,40.07
2019-02-07T00:24:50.046Z,43.02
2019-02-07T00:27:20.200Z,43.07
2019-02-07T00:29:51.676Z,47.73
2019-02-07T00:32:21.110Z,44.80
2019-02-07T00:34:50.618Z,46.70
2019-02-07T00:37:20.536Z,48.73
2019-02-07T00:39:50.762Z,47.40
2019-02-07T00:42:20.812Z,47.63
2019-02-07T00:44:52.565Z,44.20
2019-02-07T00:47:22.088Z,46.93
2019-02-07T00:49:51.596Z,44.10
2019-02-07T00:52:21.408Z,45.10
2019-02-07T00:54:51.500Z,45.53
2019-02-07T00:57:21.613Z,45.70
2019-02-07T00:59:51.753Z,43.63
2019-02-07T01:02:22.070Z,46.17
2019-02-07T01:04:52.151Z,43.97
2019-02-07T01:07:22.185Z,43.00
2019-02-07T01:09:52.348Z,43.80
2019-02-07T01:12:22.376Z,44.37
2019-02-07T01:15:01.706Z,42.40
2019-02-07T01:17:23.759Z,40.90
2019-02-07T01:19:53.294Z,42.37
2019-02-07T01:22:23.170Z,38.73
2019-02-07T01:24:53.620Z,41.83
2019-02-07T01:27:23.241Z,39.17
2019-02-07T01:29:54.461Z,39.57
2019-02-07T01:32:23.906Z,37.27
2019-02-07T01:34:53.543Z,36.80
2019-02-07T01:37:23.686Z,39.43
2019-02-07T01:39:53.919Z,38.55
2019-02-07T01:42:24.070Z,38.50
2019-02-07T01:44:54.162Z,37.63
2019-02-07T01:47:24.267Z,36.07
2019-02-07T01:49:54.510Z,35.90
2019-02-07T01:52:24.989Z,35.87
2019-02-07T01:54:54.593Z,36.73
2019-02-07T01:57:24.671Z,37.43
2019-02-07T01:59:54.859Z,36.90
2019-02-07T02:02:24.991Z,34.97
2019-02-07T02:04:55.260Z,34.60
2019-02-07T02:07:25.440Z,35.43
2019-02-07T02:09:55.643Z,35.90
2019-02-07T02:12:25.715Z,34.00
2019-02-07T02:14:58.768Z,36.10
2019-02-07T02:17:28.213Z,36.77
2019-02-07T02:19:57.822Z,38.90
2019-02-07T02:22:27.226Z,34.83
2019-02-07T02:24:56.853Z,34.50
2019-02-07T02:27:26.402Z,35.90
2019-02-07T02:29:56.489Z,35.67
2019-02-07T02:32:26.713Z,35.53
2019-02-07T02:34:56.753Z,35.83
2019-02-07T02:37:26.908Z,35.87
2019-02-07T02:39:57.019Z,37.10
2019-02-07T02:42:27.383Z,33.57
2019-02-07T02:44:57.268Z,36.77
2019-02-07T02:47:27.572Z,34.00
2019-02-07T02:49:57.689Z,38.43
2019-02-07T02:52:27.775Z,35.90
2019-02-07T02:54:57.853Z,36.60
2019-02-07T02:57:27.981Z,35.83
2019-02-07T02:59:58.145Z,35.33
2019-02-07T03:02:44.589Z,36.40
2019-02-07T03:05:16.587Z,37.20
2019-02-07T03:08:06.079Z,34.40
2019-02-07T03:10:37.217Z,36.20
2019-02-07T03:13:08.386Z,37.73
2019-02-07T03:15:49.937Z,35.70
2019-02-07T03:18:21.484Z,36.03
2019-02-07T03:20:59.439Z,35.87
2019-02-07T03:23:49.523Z,36.77
2019-02-07T03:26:23.377Z,34.67
2019-02-07T03:28:57.054Z,37.27
2019-02-07T03:31:28.196Z,35.50
2019-02-07T03:34:16.001Z,35.63
2019-02-07T03:36:47.154Z,35.60
2019-02-07T03:39:34.538Z,35.73
2019-02-07T03:42:23.792Z,37.07
2019-02-07T03:44:57.755Z,35.13
2019-02-07T03:47:31.709Z,34.47
2019-02-07T03:50:06.175Z,35.37
2019-02-07T03:52:55.621Z,33.93
2019-02-07T03:55:26.701Z,35.87
2019-02-07T03:58:09.771Z,35.80
2019-02-07T04:00:46.562Z,35.40
2019-02-07T04:03:33.908Z,35.37
2019-02-07T04:06:08.389Z,36.37
2019-02-07T04:08:55.713Z,35.00
2019-02-07T04:11:43.340Z,36.20
2019-02-07T04:14:23.480Z,36.10
2019-02-07T04:16:55.642Z,36.47
2019-02-07T04:19:35.954Z,35.90
2019-02-07T04:22:13.339Z,36.90
2019-02-07T04:24:47.036Z,34.00
2019-02-07T04:27:18.130Z,33.83
2019-02-07T04:29:54.930Z,34.10
2019-02-07T04:32:35.433Z,34.90
2019-02-07T04:35:16.876Z,34.60
2019-02-07T04:37:50.551Z,33.57
2019-02-07T04:40:21.632Z,32.30
2019-02-07T04:42:53.705Z,32.83
2019-02-07T04:45:27.511Z,32.67
2019-02-07T04:48:01.282Z,35.70
2019-02-07T04:50:44.245Z,35.27
2019-02-07T04:53:31.694Z,33.67
2019-02-07T04:56:02.786Z,29.90
2019-02-07T04:58:43.084Z,29.87
2019-02-07T05:01:16.760Z,30.50
2019-02-07T05:03:47.920Z,30.97
2019-02-07T05:06:21.991Z,32.13
2019-02-07T05:08:55.673Z,31.67
2019-02-07T05:11:27.051Z,30.40
2019-02-07T05:14:14.637Z,31.53
2019-02-07T05:16:48.620Z,29.03
2019-02-07T05:19:19.808Z,29.70
2019-02-07T05:21:57.095Z,31.10
2019-02-07T05:24:37.093Z,29.37
2019-02-07T05:27:11.148Z,30.10
2019-02-07T05:29:44.957Z,28.93
2019-02-07T05:32:21.709Z,30.43
2019-02-07T05:35:09.338Z,27.43
2019-02-07T05:37:49.573Z,28.07
2019-02-07T05:40:35.876Z,26.87
2019-02-07T05:43:09.716Z,29.63
2019-02-07T05:45:47.690Z,28.90
2019-02-07T05:48:37.550Z,28.83
2019-02-07T05:51:23.850Z,26.77
2019-02-07T05:54:11.335Z,26.77
2019-02-07T05:56:54.885Z,26.57
2019-02-07T05:59:28.712Z,25.27
2019-02-07T06:02:05.756Z,25.63
2019-02-07T06:04:52.130Z,25.37
2019-02-07T06:07:39.597Z,27.17
2019-02-07T06:10:24.340Z,24.57
2019-02-07T06:13:07.639Z,27.37
2019-02-07T06:15:57.036Z,26.63
2019-02-07T06:18:44.554Z,23.98
2019-02-07T06:21:28.778Z,23.50
2019-02-07T06:24:02.682Z,25.17
2019-02-07T06:26:48.999Z,24.60
2019-02-07T06:29:21.474Z,26.20
2019-02-07T06:31:52.881Z,26.30
2019-02-07T06:34:29.561Z,24.20
2019-02-07T06:37:18.694Z,24.17
2019-02-07T06:39:52.761Z,23.23
2019-02-07T06:42:40.129Z,25.97
2019-02-07T06:45:22.030Z,24.53
2019-02-07T06:47:55.530Z,25.20
2019-02-07T06:50:29.309Z,24.80
2019-02-07T06:53:03.231Z,24.13
2019-02-07T06:55:34.334Z,23.40
2019-02-07T06:58:22.063Z,23.83
2019-02-07T07:00:53.145Z,24.53
2019-02-07T07:03:39.154Z,24.33
2019-02-07T07:06:22.113Z,23.17
2019-02-07T07:08:56.138Z,23.30
2019-02-07T07:11:27.241Z,22.13
2019-02-07T07:13:58.315Z,22.00
2019-02-07T07:16:35.499Z,21.37
2019-02-07T07:19:24.849Z,21.67
2019-02-07T07:22:04.999Z,21.90
2019-02-07T07:24:51.665Z,22.03
2019-02-07T07:27:35.019Z,21.33
2019-02-07T07:30:24.816Z,20.50
2019-02-07T07:33:13.185Z,20.83
2019-02-07T07:35:50.262Z,21.13
2019-02-07T07:38:27.868Z,19.37
2019-02-07T07:41:01.921Z,19.40
2019-02-07T07:43:38.683Z,20.17
2019-02-07T07:46:12.209Z,19.17
2019-02-07T07:49:00.019Z,20.53
2019-02-07T07:51:46.197Z,19.43
2019-02-07T07:54:29.362Z,20.07
2019-02-07T07:57:02.929Z,18.23
2019-02-07T07:59:50.885Z,18.43
2019-02-07T08:02:40.068Z,18.53
2019-02-07T08:05:29.736Z,17.53
2019-02-07T08:08:17.095Z,19.23
2019-02-07T08:10:48.191Z,18.90
2019-02-07T08:13:20.311Z,18.17
2019-02-07T08:16:00.707Z,18.17
2019-02-07T08:18:32.105Z,16.90
2019-02-07T08:21:03.295Z,17.37
2019-02-07T08:23:43.387Z,17.80
2019-02-07T08:26:23.399Z,16.20
2019-02-07T08:29:03.731Z,16.43
2019-02-07T08:31:35.073Z,17.73
2019-02-07T08:34:09.248Z,16.87
2019-02-07T08:36:55.683Z,17.67
2019-02-07T08:39:26.903Z,16.60
2019-02-07T08:42:13.402Z,17.30
2019-02-07T08:44:50.203Z,17.07
2019-02-07T08:47:21.951Z,17.17
2019-02-07T08:50:11.412Z,16.77
2019-02-07T08:52:51.527Z,16.87
2019-02-07T08:55:25.515Z,15.50
2019-02-07T08:57:57.903Z,15.67
2019-02-07T09:00:43.787Z,18.30
2019-02-07T09:03:15.367Z,17.37
2019-02-07T09:05:55.539Z,16.50
2019-02-07T09:08:38.751Z,17.40
2019-02-07T09:11:15.743Z,16.97
2019-02-07T09:14:03.263Z,16.53
2019-02-07T09:16:49.651Z,18.00
2019-02-07T09:19:37.460Z,15.97
2019-02-07T09:22:24.887Z,15.67
2019-02-07T09:25:02.192Z,17.30
2019-02-07T09:27:51.721Z,17.77
2019-02-07T09:30:23.871Z,17.63
2019-02-07T09:32:55.939Z,17.17
2019-02-07T09:35:27.109Z,17.90
2019-02-07T09:38:01.065Z,17.87
2019-02-07T09:40:48.444Z,18.30
2019-02-07T09:43:19.521Z,18.27
2019-02-07T09:45:56.683Z,17.67
2019-02-07T09:48:27.774Z,17.63
2019-02-07T09:50:58.868Z,18.53
2019-02-07T09:53:45.126Z,18.67
2019-02-07T09:56:28.178Z,18.97
2019-02-07T09:59:05.270Z,18.43
2019-02-07T10:01:36.419Z,19.40
2019-02-07T10:04:23.017Z,19.67
2019-02-07T10:07:03.204Z,20.07
2019-02-07T10:09:50.876Z,19.13
2019-02-07T10:12:22.136Z,18.30
2019-02-07T10:15:14.201Z,18.07
2019-02-07T10:17:59.308Z,16.93
2019-02-07T10:20:30.456Z,17.67
2019-02-07T10:23:18.070Z,16.87
2019-02-07T10:25:54.800Z,16.37
2019-02-07T10:28:32.784Z,17.23
2019-02-07T10:31:06.670Z,16.20
2019-02-07T10:33:40.460Z,16.07
2019-02-07T10:36:13.995Z,16.93
2019-02-07T10:38:54.057Z,16.93
2019-02-07T10:41:39.982Z,16.17
2019-02-07T10:44:16.988Z,16.67
2019-02-07T10:46:56.729Z,16.00
2019-02-07T10:49:33.448Z,15.90
2019-02-07T10:52:21.154Z,16.60
2019-02-07T10:55:07.326Z,15.77
2019-02-07T10:57:44.246Z,15.50
2019-02-07T11:00:37.859Z,15.53
2019-02-07T11:03:21.282Z,15.23
2019-02-07T11:05:54.550Z,15.43
2019-02-07T11:08:30.686Z,16.90
2019-02-07T11:11:02.894Z,16.23
2019-02-07T11:13:34.245Z,15.47
2019-02-07T11:16:08.806Z,16.03
2019-02-07T11:18:57.772Z,15.77
2019-02-07T11:21:38.904Z,14.23
2019-02-07T11:24:26.168Z,15.47
2019-02-07T11:27:13.632Z,15.07
2019-02-07T11:30:01.032Z,14.53
2019-02-07T11:32:33.871Z,14.77
2019-02-07T11:35:08.442Z,15.67
2019-02-07T11:37:55.798Z,14.67
2019-02-07T11:40:32.885Z,14.57
2019-02-07T11:43:03.973Z,16.30
2019-02-07T11:45:52.480Z,15.97
2019-02-07T11:48:23.843Z,15.73
2019-02-07T11:50:57.943Z,14.00
2019-02-07T11:53:29.060Z,15.13
2019-02-07T11:56:01.821Z,15.70
2019-02-07T11:58:32.886Z,15.50
2019-02-07T12:01:19.291Z,15.87
2019-02-07T12:03:50.458Z,14.70
2019-02-07T12:06:21.608Z,14.77
2019-02-07T12:09:08.832Z,15.57
2019-02-07T12:11:39.904Z,14.97
2019-02-07T12:14:26.108Z,14.83
2019-02-07T12:16:58.416Z,15.07
2019-02-07T12:19:47.566Z,14.97
2019-02-07T12:22:18.628Z,14.17
2019-02-07T12:24:52.429Z,15.37
2019-02-07T12:27:26.526Z,15.73
2019-02-07T12:30:00.708Z,13.93
2019-02-07T12:32:31.832Z,14.53
2019-02-07T12:35:09.298Z,13.73
2019-02-07T12:37:49.283Z,14.33
2019-02-07T12:40:37.046Z,12.93
2019-02-07T12:43:24.626Z,13.67
2019-02-07T12:46:12.245Z,13.07
2019-02-07T12:48:59.879Z,11.60
2019-02-07T12:51:33.809Z,12.10
2019-02-07T12:54:07.818Z,12.07
2019-02-07T12:56:45.152Z,11.50
2019-02-07T12:59:22.300Z,11.73
2019-02-07T13:02:10.973Z,11.00
2019-02-07T13:04:42.182Z,11.17
2019-02-07T13:07:19.374Z,10.53
2019-02-07T13:10:06.843Z,10.40
2019-02-07T13:12:40.738Z,9.97
2019-02-07T13:15:27.803Z,8.95
2019-02-07T13:18:04.671Z,8.90
2019-02-07T13:20:42.054Z,7.93
2019-02-07T13:23:29.761Z,7.63
2019-02-07T13:26:03.670Z,6.33
2019-02-07T13:28:34.890Z,6.10
2019-02-07T13:31:22.648Z,5.77
2019-02-07T13:33:57.034Z,6.30
2019-02-07T13:36:44.425Z,6.23
2019-02-07T13:39:18.335Z,6.00
2019-02-07T13:41:49.418Z,5.83
2019-02-07T13:44:26.537Z,5.63
2019-02-07T13:47:06.628Z,5.10
2019-02-07T13:49:51.663Z,5.10
2019-02-07T13:52:22.142Z,4.67
2019-02-07T13:54:55.290Z,3.87
2019-02-07T13:57:26.032Z,4.00
2019-02-07T14:00:12.508Z,3.27
2019-02-07T14:02:59.640Z,3.90
2019-02-07T14:05:38.553Z,3.53
2019-02-07T14:08:09.226Z,3.70
2019-02-07T14:10:40.728Z,3.90
2019-02-07T14:13:28.124Z,4.07
2019-02-07T14:16:15.455Z,2.93
2019-02-07T14:18:52.477Z,3.90
2019-02-07T14:21:26.377Z,3.60
2019-02-07T14:23:57.520Z,3.50
2019-02-07T14:26:31.553Z,2.73
2019-02-07T14:29:02.905Z,3.47
2019-02-07T14:31:34.007Z,3.13
2019-02-07T14:34:13.777Z,3.50
2019-02-07T14:36:50.680Z,3.13
2019-02-07T14:39:38.531Z,2.87
2019-02-07T14:42:26.258Z,2.87
2019-02-07T14:45:03.153Z,3.23
2019-02-07T14:47:32.605Z,3.27
2019-02-07T14:50:02.041Z,3.60
2019-02-07T14:52:31.519Z,3.00
2019-02-07T14:55:00.930Z,3.60
2019-02-07T14:57:30.437Z,3.37
2019-02-07T15:00:03.958Z,2.97
2019-02-07T15:02:33.451Z,3.40
2019-02-07T15:05:05.541Z,3.83
2019-02-07T15:07:35.329Z,3.40
2019-02-07T15:10:07.863Z,3.47
2019-02-07T15:12:37.689Z,3.60
2019-02-07T15:15:10.214Z,3.47
2019-02-07T15:17:40.379Z,3.77
2019-02-07T15:20:12.387Z,3.10
2019-02-07T15:22:42.179Z,3.90
2019-02-07T15:25:13.257Z,3.50
2019-02-07T15:27:42.763Z,3.73
2019-02-07T15:30:15.289Z,4.23
2019-02-07T15:32:44.719Z,3.43
2019-02-07T15:35:24.291Z,3.80
2019-02-07T15:37:53.863Z,3.43
2019-02-07T15:40:26.177Z,3.43
2019-02-07T15:42:55.729Z,3.37
2019-02-07T15:45:25.403Z,3.60
2019-02-07T15:47:54.837Z,3.93
2019-02-07T15:50:37.415Z,3.50
2019-02-07T15:52:59.347Z,3.37
2019-02-07T15:55:28.933Z,3.67
2019-02-07T15:57:58.799Z,4.20
2019-02-07T16:00:46.857Z,4.10
2019-02-07T16:03:24.146Z,4.23
2019-02-07T16:05:53.636Z,4.00
2019-02-07T16:08:23.140Z,3.10
2019-02-07T16:10:52.606Z,4.03
2019-02-07T16:13:22.204Z,4.10
2019-02-07T16:15:52.229Z,3.62
2019-02-07T16:18:21.791Z,4.17
2019-02-07T16:20:51.394Z,4.37
2019-02-07T16:23:20.920Z,3.70
2019-02-07T16:25:50.434Z,4.00
2019-02-07T16:28:20.419Z,4.47
2019-02-07T16:30:50.186Z,3.30
2019-02-07T16:33:19.837Z,3.45
2019-02-07T16:35:50.874Z,3.63
2019-02-07T16:38:20.479Z,3.97
2019-02-07T16:40:50.282Z,3.93
2019-02-07T16:43:22.362Z,3.57
2019-02-07T16:45:51.945Z,3.33
2019-02-07T16:48:21.487Z,3.70
2019-02-07T16:50:59.934Z,3.77
2019-02-07T16:53:22.380Z,3.67
2019-02-07T16:55:51.881Z,3.67
2019-02-07T16:58:21.723Z,3.73
2019-02-07T17:00:51.241Z,3.77
2019-02-07T17:03:23.853Z,3.57
2019-02-07T17:05:53.351Z,3.93
2019-02-07T17:08:23.299Z,3.13
2019-02-07T17:10:54.874Z,3.07
2019-02-07T17:13:26.710Z,3.47
2019-02-07T17:15:56.138Z,3.27
2019-02-07T17:18:25.675Z,4.87
2019-02-07T17:20:55.260Z,4.47
2019-02-07T17:23:24.956Z,4.27
2019-02-07T17:25:55.081Z,3.80
2019-02-07T17:28:24.608Z,4.10
2019-02-07T17:30:54.196Z,4.63
2019-02-07T17:33:23.780Z,5.23
2019-02-07T17:35:53.306Z,3.57
2019-02-07T17:38:22.807Z,3.70
2019-02-07T17:40:52.643Z,4.00
2019-02-07T17:43:22.166Z,4.00
2019-02-07T17:45:52.613Z,3.70
2019-02-07T17:48:22.126Z,3.43
2019-02-07T17:50:52.396Z,3.97
2019-02-07T17:53:21.917Z,3.87
2019-02-07T17:55:51.647Z,4.37
2019-02-07T17:58:21.160Z,3.77
2019-02-07T18:00:57.974Z,3.97
2019-02-07T18:03:27.566Z,3.73
2019-02-07T18:05:57.174Z,3.97
2019-02-07T18:08:26.867Z,4.43
2019-02-07T18:10:57.076Z,4.30
2019-02-07T18:13:26.592Z,3.80
2019-02-07T18:15:57.675Z,4.13
2019-02-07T18:18:27.406Z,5.07
2019-02-07T18:20:56.894Z,3.30
2019-02-07T18:23:27.490Z,3.40
2019-02-07T18:25:57.106Z,3.30
2019-02-07T18:28:26.787Z,4.30
2019-02-07T18:30:56.383Z,3.13
2019-02-07T18:33:25.931Z,3.90
2019-02-07T18:35:55.521Z,3.30
2019-02-07T18:38:26.429Z,3.50
2019-02-07T18:40:56.226Z,3.90
2019-02-07T18:43:25.686Z,3.27
2019-02-07T18:45:55.346Z,2.90
2019-02-07T18:48:24.898Z,3.30
2019-02-07T18:50:55.281Z,3.20
2019-02-07T18:53:25.757Z,2.93
2019-02-07T18:55:56.584Z,3.20
2019-02-07T18:58:29.189Z,2.40
2019-02-07T19:00:58.707Z,2.17
2019-02-07T19:03:29.768Z,2.40
2019-02-07T19:05:59.284Z,2.40
2019-02-07T19:08:30.314Z,2.33
2019-02-07T19:11:00.304Z,3.07
2019-02-07T19:13:29.756Z,2.40
2019-02-07T19:16:00.216Z,2.70
2019-02-07T19:18:31.300Z,2.33
2019-02-07T19:21:00.749Z,2.47
2019-02-07T19:23:31.420Z,2.33
2019-02-07T19:26:00.860Z,2.20
2019-02-07T19:28:30.408Z,2.40
2019-02-07T19:30:59.877Z,2.20
2019-02-07T19:33:31.416Z,2.33
2019-02-07T19:36:01.217Z,1.80
2019-02-07T19:38:32.952Z,2.07
2019-02-07T19:41:04.469Z,1.97
2019-02-07T19:43:34.037Z,1.93
2019-02-07T19:46:03.735Z,2.22
2019-02-07T19:48:35.175Z,2.77
2019-02-07T19:51:04.875Z,2.90
2019-02-07T19:53:35.425Z,2.37
2019-02-07T19:56:08.628Z,2.53
2019-02-07T19:58:38.140Z,2.93
2019-02-07T20:01:07.793Z,3.00
2019-02-07T20:03:37.367Z,2.93
2019-02-07T20:06:21.935Z,2.73
2019-02-07T20:09:07.828Z,2.80
2019-02-07T20:11:54.963Z,3.17
2019-02-07T20:14:40.055Z,2.57
2019-02-07T20:17:19.483Z,3.30
2019-02-07T20:20:02.876Z,2.53
2019-02-07T20:22:47.727Z,3.33
2019-02-07T20:25:36.406Z,2.53
2019-02-07T20:28:23.558Z,2.30
2019-02-07T20:31:09.382Z,2.60
2019-02-07T20:33:47.742Z,2.80
2019-02-07T20:36:21.342Z,2.40
2019-02-07T20:38:53.720Z,3.23
2019-02-07T20:41:25.064Z,2.40
2019-02-07T20:44:00.408Z,2.60
2019-02-07T20:46:46.495Z,3.37
2019-02-07T20:49:28.011Z,2.53
2019-02-07T20:52:01.233Z,3.20
2019-02-07T20:54:32.686Z,2.90
2019-02-07T20:57:02.397Z,2.90
2019-02-07T20:59:34.597Z,3.47
2019-02-07T21:02:05.088Z,3.20
2019-02-07T21:04:35.525Z,2.57
2019-02-07T21:07:05.208Z,3.27
2019-02-07T21:09:34.797Z,3.20
2019-02-07T21:12:04.424Z,2.97
2019-02-07T21:14:33.852Z,3.53
2019-02-07T21:17:03.360Z,3.07
2019-02-07T21:19:32.977Z,3.50
2019-02-07T21:22:02.409Z,3.00
2019-02-07T21:24:32.998Z,3.20
2019-02-07T21:27:03.689Z,2.80
2019-02-07T21:29:33.141Z,3.43
2019-02-07T21:32:05.539Z,3.73
2019-02-07T21:34:35.063Z,3.47
2019-02-07T21:37:07.660Z,3.00
2019-02-07T21:39:39.803Z,3.00
2019-02-07T21:42:09.395Z,3.57
2019-02-07T21:44:38.864Z,3.57
2019-02-07T21:47:08.375Z,3.30
2019-02-07T21:49:39.562Z,3.17
2019-02-07T21:52:09.083Z,4.10
2019-02-07T21:54:38.615Z,3.47
2019-02-07T21:57:08.219Z,3.53
2019-02-07T21:59:37.739Z,3.30
2019-02-07T22:02:07.175Z,3.97
2019-02-07T22:04:36.669Z,3.83
2019-02-07T22:07:06.262Z,3.63
2019-02-07T22:09:35.683Z,3.63
2019-02-07T22:12:05.214Z,4.17
2019-02-07T22:14:35.024Z,4.17
2019-02-07T22:17:05.227Z,4.20
2019-02-07T22:19:35.239Z,3.30
2019-02-07T22:22:05.647Z,3.33
2019-02-07T22:24:35.469Z,4.20
2019-02-07T22:27:06.022Z,3.80
2019-02-07T22:29:35.723Z,3.37
2019-02-07T22:32:06.030Z,3.70
2019-02-07T22:34:36.012Z,3.75
2019-02-07T22:37:06.247Z,2.97
2019-02-07T22:39:36.243Z,3.23
2019-02-07T22:42:06.453Z,3.57
2019-02-07T22:44:36.434Z,4.00
2019-02-07T22:47:06.570Z,3.90
2019-02-07T22:49:36.692Z,4.50
2019-02-07T22:52:06.326Z,3.40
2019-02-07T22:54:35.824Z,3.83
2019-02-07T22:57:05.255Z,2.97
2019-02-07T22:59:34.698Z,2.70
2019-02-07T23:02:06.304Z,3.67
2019-02-07T23:04:35.939Z,3.47
2019-02-07T23:07:05.495Z,2.80
2019-02-07T23:09:35.332Z,3.10
2019-02-07T23:12:05.405Z,3.47
2019-02-07T23:14:34.908Z,3.13
2019-02-07T23:17:04.871Z,2.80
2019-02-07T23:19:34.502Z,3.30
2019-02-07T23:22:04.260Z,2.70
2019-02-07T23:24:34.087Z,2.80
2019-02-07T23:27:03.789Z,3.10
2019-02-07T23:29:33.226Z,3.07
2019-02-07T23:32:03.437Z,2.50
2019-02-07T23:34:32.975Z,2.97
2019-02-07T23:37:02.384Z,3.00
2019-02-07T23:39:32.102Z,3.33
2019-02-07T23:42:03.233Z,3.07
2019-02-07T23:44:32.836Z,2.77
2019-02-07T23:47:02.246Z,2.97
2019-02-07T23:49:31.701Z,3.00
2019-02-07T23:52:01.199Z,3.03
2019-02-07T23:54:31.112Z,3.63
2019-02-07T23:57:00.542Z,3.23
2019-02-07T23:59:29.982Z,3.43
